Time;durP1;ratioP1;P1;durP2;ratioP2;P2;SDS_P1;SDS_P2;PMS_P1;PMS_P2;Temp;Humidity;BMP_temperature;BMP_pressure;BME280_temperature;BME280_humidity;BME280_pressure;Samples;Min_cycle;Max_cycle;Signal;HPM_P1;HPM_P2
2022/04/18 04:01:44;;;;;;;2.83;2.30;;;-1.70;96.30;;;;;;5362262;23;20513;-76
2022/04/18 04:04:09;;;;;;;5.33;2.93;;;-1.70;96.30;;;;;;4975882;28;20801;-77
2022/04/18 04:06:35;;;;;;;14.03;7.97;;;-1.80;96.30;;;;;;4975270;28;20249;-78
2022/04/18 04:09:00;;;;;;;6.83;5.53;;;-1.80;96.30;;;;;;4974960;28;20185;-78
2022/04/18 04:11:25;;;;;;;8.37;5.53;;;-1.80;96.30;;;;;;4975541;28;20204;-77
2022/04/18 04:13:51;;;;;;;5.23;4.23;;;-1.80;96.30;;;;;;4977140;28;20273;-77
2022/04/18 04:16:18;;;;;;;4.07;2.73;;;-1.70;96.30;;;;;;4983553;28;20210;-76
2022/04/18 04:18:44;;;;;;;5.00;2.90;;;-1.60;96.30;;;;;;4979881;28;20202;-76
2022/04/18 05:10:34;;;;;;;2.30;1.90;;;0.00;96.30;;;;;;5206800;23;20493;-76
2022/04/18 05:13:00;;;;;;;3.63;2.73;;;0.20;96.30;;;;;;4969435;28;20481;-75
2022/04/18 05:15:25;;;;;;;3.60;2.03;;;0.50;96.30;;;;;;4954283;29;20249;-76
2022/04/18 05:17:51;;;;;;;4.37;3.10;;;0.80;96.30;;;;;;4954106;29;20674;-75
2022/04/18 05:20:16;;;;;;;2.97;2.30;;;1.20;96.30;;;;;;4954772;28;20182;-75
2022/04/18 05:22:42;;;;;;;6.17;3.40;;;1.60;96.30;;;;;;4974244;28;20201;-74
2022/04/18 05:25:08;;;;;;;4.17;2.63;;;1.90;96.30;;;;;;4980148;28;20257;-77
2022/04/18 05:27:34;;;;;;;4.83;2.60;;;2.20;96.30;;;;;;4966467;28;20170;-79
2022/04/18 05:29:59;;;;;;;3.63;2.77;;;2.90;96.30;;;;;;4959701;28;20425;-80
2022/04/18 05:32:25;;;;;;;4.70;2.27;;;4.40;96.30;;;;;;4959887;28;20198;-80
2022/04/18 05:34:50;;;;;;;2.37;2.13;;;5.60;96.30;;;;;;4977083;28;20537;-78
2022/04/18 05:37:16;;;;;;;3.30;2.20;;;6.70;96.30;;;;;;4959717;28;20213;-79
2022/04/18 05:39:41;;;;;;;3.70;2.23;;;7.50;96.30;;;;;;4977613;28;20193;-80
2022/04/18 05:42:07;;;;;;;3.30;2.20;;;8.00;96.30;;;;;;4978172;28;20190;-78
2022/04/18 05:44:33;;;;;;;2.37;1.90;;;8.50;96.30;;;;;;4976809;28;20661;-78
2022/04/18 05:46:59;;;;;;;3.23;2.10;;;9.00;96.30;;;;;;4975937;28;20412;-79
2022/04/18 05:49:25;;;;;;;4.00;2.07;;;9.70;96.30;;;;;;4976403;28;20997;-79
2022/04/18 05:51:50;;;;;;;2.40;1.90;;;9.70;96.30;;;;;;4977065;28;20572;-78
2022/04/18 05:54:16;;;;;;;4.20;2.80;;;10.40;95.10;;;;;;4958892;28;20178;-77
2022/04/18 05:56:42;;;;;;;4.20;2.30;;;10.60;93.00;;;;;;4975384;28;20545;-78
2022/04/18 05:59:07;;;;;;;5.40;2.30;;;11.10;92.10;;;;;;4975104;28;20182;-78
2022/04/18 06:01:33;;;;;;;3.00;2.03;;;10.80;92.10;;;;;;4957903;28;20197;-78
2022/04/18 06:03:58;;;;;;;3.90;2.60;;;11.20;91.30;;;;;;4957131;28;20170;-76
2022/04/18 06:06:24;;;;;;;4.43;2.57;;;11.30;90.70;;;;;;4973209;28;20261;-74
2022/04/18 06:08:50;;;;;;;4.20;2.33;;;11.00;91.00;;;;;;4975131;28;20648;-76
2022/04/18 06:11:15;;;;;;;5.03;2.10;;;11.20;90.60;;;;;;4973824;28;20448;-79
2022/04/18 06:13:41;;;;;;;3.33;2.53;;;12.30;88.60;;;;;;4973736;28;20623;-75
2022/04/18 06:16:07;;;;;;;1.80;1.70;;;13.10;87.90;;;;;;4973107;28;20202;-78
2022/04/18 06:18:33;;;;;;;2.70;2.20;;;13.70;83.50;;;;;;4971586;28;20218;-75
2022/04/18 06:20:59;;;;;;;5.63;1.90;;;13.50;85.00;;;;;;4973213;28;20213;-75
2022/04/18 06:23:24;;;;;;;3.17;2.50;;;12.80;87.10;;;;;;4972878;28;20584;-75
2022/04/18 06:25:50;;;;;;;6.20;2.30;;;13.90;84.70;;;;;;4973299;28;20185;-76
2022/04/18 06:28:18;;;;;;;2.70;2.50;;;14.20;84.10;;;;;;4972456;28;20224;-76
2022/04/18 06:30:43;;;;;;;5.87;2.80;;;14.30;84.30;;;;;;4973043;28;20278;-76
2022/04/18 06:33:10;;;;;;;2.60;2.40;;;14.80;82.90;;;;;;4955315;28;20969;-75
2022/04/18 06:35:36;;;;;;;2.60;2.40;;;15.10;81.40;;;;;;4972865;28;20662;-76
2022/04/18 06:38:01;;;;;;;2.70;2.30;;;15.00;80.30;;;;;;4975589;28;20428;-78
2022/04/18 06:40:27;;;;;;;3.70;2.07;;;15.70;80.50;;;;;;4976986;28;20174;-75
2022/04/18 06:42:52;;;;;;;2.80;2.30;;;16.20;76.80;;;;;;4976622;28;20531;-76
2022/04/18 06:45:18;;;;;;;3.73;2.53;;;16.00;76.80;;;;;;4976896;28;20197;-76
2022/04/18 06:47:43;;;;;;;5.87;2.97;;;15.30;78.60;;;;;;4976335;28;20188;-75
2022/04/18 06:50:12;;;;;;;2.63;2.20;;;15.00;79.60;;;;;;4977165;28;20166;-75
2022/04/18 06:52:39;;;;;;;4.30;2.40;;;16.40;79.00;;;;;;4977231;28;20173;-75
2022/04/18 06:55:06;;;;;;;4.03;2.30;;;16.70;75.20;;;;;;4976784;28;20441;-76
2022/04/18 06:57:31;;;;;;;2.87;2.20;;;18.90;71.40;;;;;;4959028;28;20425;-75
2022/04/18 06:59:57;;;;;;;2.33;2.13;;;19.00;70.70;;;;;;4976640;28;20471;-76
2022/04/18 07:02:22;;;;;;;2.93;2.30;;;17.50;73.10;;;;;;4976868;28;20229;-75
2022/04/18 07:04:49;;;;;;;2.63;2.40;;;17.60;75.10;;;;;;4976788;28;20239;-76
2022/04/18 07:07:15;;;;;;;3.60;2.50;;;17.70;73.60;;;;;;4976490;28;20205;-76
2022/04/18 07:09:40;;;;;;;3.67;2.80;;;18.00;71.90;;;;;;4976109;28;20451;-75
2022/04/18 07:12:06;;;;;;;4.77;2.50;;;18.50;72.70;;;;;;4959215;28;20677;-75
2022/04/18 07:14:31;;;;;;;2.60;2.40;;;18.60;72.60;;;;;;4975570;28;20174;-77
2022/04/18 07:16:58;;;;;;;4.80;2.53;;;;;;;;;;4976020;28;20658;-77
2022/04/18 07:19:23;;;;;;;3.60;2.80;;;19.70;71.60;;;;;;4975995;28;20697;-78
2022/04/18 07:21:49;;;;;;;3.00;2.40;;;18.70;70.80;;;;;;4975724;28;20429;-77
2022/04/18 07:24:14;;;;;;;3.00;2.00;;;18.70;71.90;;;;;;4976273;28;20177;-76
2022/04/18 07:26:40;;;;;;;3.10;2.57;;;;;;;;;;4977112;28;20173;-78
2022/04/18 07:29:06;;;;;;;2.50;2.20;;;18.70;72.30;;;;;;4976288;28;20662;-77
2022/04/18 07:31:32;;;;;;;3.00;2.47;;;;;;;;;;4976589;28;20429;-78
2022/04/18 07:33:58;;;;;;;4.83;2.20;;;16.90;75.20;;;;;;4976435;28;20676;-75
2022/04/18 07:36:24;;;;;;;2.90;2.60;;;17.70;74.90;;;;;;4976411;28;20540;-78
2022/04/18 07:38:49;;;;;;;4.13;2.60;;;18.70;71.60;;;;;;4975920;28;20200;-76
2022/04/18 07:41:16;;;;;;;3.70;2.67;;;19.00;70.10;;;;;;4975004;28;20198;-76
2022/04/18 07:43:42;;;;;;;5.50;2.87;;;18.20;70.60;;;;;;4976414;28;20313;-78
2022/04/18 07:46:08;;;;;;;3.77;3.30;;;18.30;71.00;;;;;;4958934;28;21043;-77
2022/04/18 07:48:34;;;;;;;3.10;2.80;;;19.20;70.20;;;;;;4981779;28;20589;-76
2022/04/18 07:51:45;;;;;;;4.20;2.90;;;17.90;71.10;;;;;;4975640;28;20225;-76
2022/04/18 07:53:46;;;;;;;3.83;3.43;;;;;;;;;;4961447;28;20453;-75
2022/04/18 07:56:13;;;;;;;4.27;3.73;;;;;;;;;;4975491;28;20457;-75
2022/04/18 07:58:38;;;;;;;6.47;3.20;;;16.20;74.80;;;;;;4975296;28;20415;-77
2022/04/18 08:01:04;;;;;;;3.60;3.30;;;16.20;74.80;;;;;;4975418;28;20432;-76
2022/04/18 08:03:33;;;;;;;3.50;3.20;;;18.20;71.90;;;;;;4975655;28;20205;-76
2022/04/18 08:05:59;;;;;;;4.37;3.17;;;18.30;71.40;;;;;;4975623;28;20170;-77
2022/04/18 08:08:25;;;;;;;4.70;4.10;;;17.40;69.70;;;;;;4974814;28;20984;-77
2022/04/18 08:10:50;;;;;;;4.80;3.53;;;16.80;73.40;;;;;;4974927;28;20445;-75
2022/04/18 08:13:16;;;;;;;4.13;3.60;;;15.40;76.60;;;;;;4975234;28;20179;-75
2022/04/18 08:15:41;;;;;;;4.33;2.93;;;16.00;76.80;;;;;;4974719;28;20233;-75
2022/04/18 08:18:07;;;;;;;4.47;3.40;;;16.00;76.40;;;;;;4963083;28;20540;-77
2022/04/18 08:20:33;;;;;;;6.50;3.80;;;16.10;74.20;;;;;;4994398;28;20194;-75
2022/04/18 08:22:58;;;;;;;3.53;3.13;;;15.80;77.60;;;;;;4994360;28;20664;-75
2022/04/18 08:25:24;;;;;;;5.80;4.50;;;16.10;78.90;;;;;;4977573;28;20659;-76
2022/04/18 08:27:50;;;;;;;6.43;4.27;;;15.90;75.70;;;;;;4994609;28;20173;-76
2022/04/18 08:30:15;;;;;;;5.67;3.30;;;16.00;78.10;;;;;;4994541;28;20189;-77
2022/04/18 08:32:41;;;;;;;6.33;3.63;;;16.10;76.60;;;;;;4994470;28;20224;-75
2022/04/18 08:35:08;;;;;;;4.80;3.43;;;15.60;80.70;;;;;;4994283;28;20185;-75
2022/04/18 08:37:37;;;;;;;3.73;3.10;;;15.90;77.80;;;;;;4994413;28;20260;-78
2022/04/18 08:40:06;;;;;;;4.87;3.53;;;15.70;76.10;;;;;;4991762;28;20467;-76
2022/04/18 08:42:35;;;;;;;6.73;3.40;;;15.60;74.10;;;;;;4957519;28;20476;-75
2022/04/18 08:45:03;;;;;;;7.67;4.10;;;15.00;75.60;;;;;;4975117;28;20421;-75
2022/04/18 08:52:57;;;;;;;4.60;3.97;;;15.20;75.20;;;;;;4975142;28;20789;-74
2022/04/18 08:55:23;;;;;;;4.60;3.67;;;14.60;77.30;;;;;;4974642;28;20449;-74
2022/04/18 08:57:49;;;;;;;4.67;3.27;;;14.50;78.70;;;;;;4974953;28;20226;-76
2022/04/18 09:00:15;;;;;;;4.00;3.53;;;13.90;74.80;;;;;;4973844;28;20170;-77
2022/04/18 09:02:40;;;;;;;5.27;4.03;;;14.90;79.70;;;;;;4974753;28;20178;-75
2022/04/18 09:05:11;;;;;;;5.30;3.60;;;16.00;76.30;;;;;;4974431;28;20181;-75
2022/04/18 09:07:36;;;;;;;5.13;2.90;;;16.50;72.80;;;;;;4973888;28;20167;-75
2022/04/18 09:10:02;;;;;;;5.10;3.93;;;15.60;73.80;;;;;;4973916;28;20793;-75
2022/04/18 09:12:29;;;;;;;5.37;3.70;;;16.00;79.00;;;;;;4974031;28;20387;-75
2022/04/18 09:14:55;;;;;;;3.90;3.33;;;15.80;73.40;;;;;;4973974;28;20170;-75
2022/04/18 09:17:33;;;;;;;6.07;3.37;;;15.50;73.10;;;;;;4972072;28;20465;-75
2022/04/18 09:20:12;;;;;;;4.97;3.90;;;15.70;74.90;;;;;;4973830;28;20405;-74
2022/04/18 09:22:48;;;;;;;6.20;3.67;;;16.10;73.60;;;;;;4973867;28;20464;-74
2022/04/18 09:25:15;;;;;;;3.40;3.10;;;16.60;72.90;;;;;;4973772;28;20483;-76
2022/04/18 09:27:46;;;;;;;4.30;2.93;;;16.50;75.30;;;;;;4973514;28;20406;-74
2022/04/18 09:30:12;;;;;;;3.37;3.07;;;16.50;71.40;;;;;;4957041;28;20417;-75
2022/04/18 09:32:41;;;;;;;3.50;2.73;;;14.90;67.50;;;;;;4974273;28;20413;-75
2022/04/18 09:35:08;;;;;;;5.50;2.70;;;15.00;72.00;;;;;;4974097;28;20937;-74
2022/04/18 09:37:33;;;;;;;4.40;2.80;;;14.90;70.50;;;;;;4957196;28;21040;-73
2022/04/18 09:39:59;;;;;;;10.43;2.80;;;14.20;66.60;;;;;;4957433;28;20524;-74
2022/04/18 09:42:27;;;;;;;3.43;2.60;;;13.70;72.50;;;;;;4974285;28;20346;-74
2022/04/18 09:44:52;;;;;;;4.00;3.30;;;14.00;74.70;;;;;;4974409;28;20634;-76
2022/04/18 09:47:20;;;;;;;4.77;3.47;;;14.10;70.60;;;;;;4973870;28;20553;-76
2022/04/18 09:49:46;;;;;;;3.20;2.90;;;14.30;71.60;;;;;;4973864;28;20205;-78
2022/04/18 09:52:15;;;;;;;5.30;4.50;;;14.00;68.80;;;;;;4974434;28;20437;-74
2022/04/18 09:54:50;;;;;;;4.03;3.17;;;13.90;71.50;;;;;;4973448;28;20233;-75
2022/04/18 09:57:21;;;;;;;9.10;3.00;;;14.80;69.20;;;;;;4973483;28;21145;-75
2022/04/18 09:59:50;;;;;;;4.60;2.87;;;16.30;68.60;;;;;;4964751;28;20441;-76
2022/04/18 10:02:16;;;;;;;4.00;3.17;;;15.80;67.10;;;;;;4971796;28;20511;-79
2022/04/18 10:04:42;;;;;;;3.73;2.40;;;15.50;65.60;;;;;;4970128;28;20857;-78
2022/04/18 10:07:10;;;;;;;7.20;2.67;;;14.70;68.90;;;;;;4953145;28;20453;-78
2022/04/18 10:09:38;;;;;;;3.33;2.63;;;14.80;70.10;;;;;;4961417;28;20255;-78
2022/04/18 10:12:05;;;;;;;4.87;2.67;;;14.20;65.40;;;;;;4995642;28;20447;-78
2022/04/18 10:14:31;;;;;;;4.50;2.80;;;14.00;71.20;;;;;;5022210;28;20417;-76
2022/04/18 10:16:57;;;;;;;3.97;2.40;;;14.60;72.80;;;;;;5007292;28;20989;-76
2022/04/18 10:19:42;;;;;;;2.50;2.30;;;14.60;64.80;;;;;;4996850;28;20432;-75
2022/04/18 10:22:29;;;;;;;3.00;2.70;;;14.70;63.80;;;;;;4997038;28;20447;-76
2022/04/18 10:25:11;;;;;;;4.53;2.70;;;15.40;69.10;;;;;;4994051;28;20527;-76
2022/04/18 10:28:05;;;;;;;3.60;3.03;;;15.50;69.00;;;;;;4993654;28;20443;-76
2022/04/18 10:30:37;;;;;;;4.17;2.93;;;14.80;71.00;;;;;;4989173;28;20428;-75
2022/04/18 10:33:04;;;;;;;4.03;2.67;;;15.10;76.30;;;;;;4996217;28;20420;-76
2022/04/18 10:35:30;;;;;;;3.93;2.20;;;14.80;66.50;;;;;;4984061;28;20463;-75
2022/04/18 10:37:56;;;;;;;4.43;2.70;;;;;;;;;;4977542;28;21000;-76
2022/04/18 10:40:23;;;;;;;3.23;2.50;;;15.00;63.70;;;;;;4972075;28;20451;-76
2022/04/18 10:42:49;;;;;;;2.60;2.30;;;15.20;67.60;;;;;;4987264;28;20285;-76
2022/04/18 10:45:19;;;;;;;5.10;2.47;;;15.10;69.80;;;;;;4996658;28;20413;-76
2022/04/18 10:48:08;;;;;;;3.40;3.00;;;14.50;66.10;;;;;;4996178;28;20178;-77
2022/04/18 10:50:33;;;;;;;2.80;2.17;;;13.80;70.80;;;;;;4996155;28;20440;-76
2022/04/18 10:53:15;;;;;;;3.20;2.50;;;14.30;73.30;;;;;;4995930;28;20459;-76
2022/04/18 10:56:01;;;;;;;3.10;2.40;;;14.70;73.40;;;;;;4989751;28;20209;-76
2022/04/18 10:58:32;;;;;;;4.20;2.47;;;14.60;64.90;;;;;;4995439;28;20427;-76
2022/04/18 11:00:59;;;;;;;4.00;2.37;;;14.80;71.60;;;;;;4995860;28;20432;-76
2022/04/18 11:03:37;;;;;;;5.50;3.07;;;15.10;71.80;;;;;;4996034;28;20409;-77
2022/04/18 11:06:15;;;;;;;5.43;2.43;;;14.70;71.60;;;;;;4978878;28;20790;-76
2022/04/18 11:08:42;;;;;;;3.10;2.40;;;14.50;70.20;;;;;;4978567;28;20975;-75
2022/04/18 11:11:16;;;;;;;3.40;2.60;;;14.10;69.20;;;;;;4977404;28;20887;-76
2022/04/18 11:13:49;;;;;;;3.40;2.67;;;13.60;69.80;;;;;;4994984;28;20455;-77
2022/04/18 11:16:24;;;;;;;5.17;2.77;;;14.20;72.60;;;;;;4987424;28;20476;-78
2022/04/18 11:19:06;;;;;;;3.40;2.70;;;13.70;67.80;;;;;;4991189;28;20420;-77
2022/04/18 11:22:04;;;;;;;2.97;2.70;;;14.10;68.90;;;;;;4992208;28;20917;-79
2022/04/18 11:24:40;;;;;;;3.80;2.67;;;14.40;71.20;;;;;;4988168;28;20425;-79
2022/04/18 11:27:26;;;;;;;2.50;2.30;;;14.10;70.10;;;;;;4991216;28;20436;-77
2022/04/18 11:29:56;;;;;;;3.07;2.07;;;14.50;75.40;;;;;;4980961;28;20429;-79
2022/04/18 14:27:43;;;;;;;2.53;1.97;;;;;;;;;;5655860;23;21035;-77
2022/04/18 14:30:09;;;;;;;2.23;1.73;;;14.10;81.20;;;;;;5011653;28;20404;-77
2022/04/18 14:32:34;;;;;;;1.90;1.57;;;14.10;78.20;;;;;;5031195;28;20840;-76
2022/04/18 14:35:00;;;;;;;3.20;1.63;;;13.60;81.00;;;;;;5031439;28;20537;-77
2022/04/18 14:37:25;;;;;;;1.67;1.57;;;12.90;85.30;;;;;;5013594;28;20216;-77
2022/04/18 14:39:52;;;;;;;2.90;1.60;;;12.50;84.20;;;;;;5014041;28;20200;-77
2022/04/18 14:42:18;;;;;;;2.83;2.20;;;12.30;84.70;;;;;;5031529;28;20188;-77
2022/04/18 14:44:43;;;;;;;3.20;2.10;;;12.30;85.30;;;;;;5031555;28;20403;-76
2022/04/18 14:47:09;;;;;;;2.70;1.87;;;12.80;83.60;;;;;;5031569;28;20179;-77
2022/04/18 14:49:35;;;;;;;2.47;1.80;;;13.20;82.60;;;;;;5031233;28;20687;-77
2022/04/18 14:52:00;;;;;;;3.40;1.80;;;13.70;83.10;;;;;;5031317;28;20200;-77
2022/04/18 14:54:26;;;;;;;2.03;1.47;;;13.80;81.80;;;;;;5015287;28;20192;-77
2022/04/18 14:56:51;;;;;;;1.73;1.47;;;13.00;80.30;;;;;;5018727;28;20192;-78
2022/04/18 14:59:17;;;;;;;2.23;1.70;;;12.30;84.90;;;;;;5023094;28;20567;-77
2022/04/18 15:01:42;;;;;;;3.77;2.07;;;12.00;85.80;;;;;;5020192;28;20212;-77
2022/04/18 15:04:08;;;;;;;2.30;1.73;;;12.00;87.00;;;;;;5024781;28;20187;-77
2022/04/18 15:06:33;;;;;;;2.33;1.90;;;12.00;87.90;;;;;;5025897;28;20181;-77
2022/04/18 15:08:59;;;;;;;2.20;1.87;;;12.00;86.30;;;;;;5026595;28;20176;-76
2022/04/18 15:11:24;;;;;;;1.60;1.50;;;12.40;87.30;;;;;;5023530;28;20193;-76
2022/04/18 15:13:50;;;;;;;4.57;2.10;;;12.60;85.50;;;;;;5027080;28;20303;-77
2022/04/18 15:16:15;;;;;;;3.33;2.23;;;13.00;85.80;;;;;;5026245;28;20676;-79
2022/04/18 15:18:41;;;;;;;1.80;1.50;;;13.10;83.20;;;;;;5028788;28;20930;-79
2022/04/18 15:21:07;;;;;;;2.50;1.57;;;13.40;81.70;;;;;;5029142;28;20232;-78
2022/04/18 15:23:32;;;;;;;1.53;1.43;;;13.30;79.00;;;;;;5024411;28;20274;-77
2022/04/18 15:25:59;;;;;;;2.37;1.97;;;13.70;80.80;;;;;;5031727;28;20721;-77
2022/04/18 15:28:25;;;;;;;2.20;1.40;;;13.60;79.60;;;;;;5020290;28;20258;-77
2022/04/18 15:33:35;;;;;;;1.90;1.77;;;12.90;81.80;;;;;;5025996;28;20433;-78
2022/04/18 15:36:01;;;;;;;1.70;1.47;;;12.50;85.30;;;;;;5032934;28;20467;-78
2022/04/18 15:38:26;;;;;;;2.67;1.93;;;12.20;86.40;;;;;;5027717;28;20204;-80
2022/04/18 15:40:52;;;;;;;2.03;1.83;;;11.90;86.30;;;;;;5018194;28;20259;-79
2022/04/18 15:43:17;;;;;;;10.90;2.20;;;11.60;87.90;;;;;;5040469;28;20161;-75
2022/04/18 15:45:43;;;;;;;2.87;1.83;;;11.50;88.40;;;;;;5047549;28;20179;-71
2022/04/18 15:48:08;;;;;;;3.50;2.10;;;11.40;88.30;;;;;;5056798;28;20164;-74
2022/04/18 15:50:37;;;;;;;2.50;2.07;;;11.40;88.70;;;;;;5022243;28;20212;-78
2022/04/18 15:53:03;;;;;;;3.67;2.03;;;11.30;88.50;;;;;;5009399;28;20180;-78
2022/04/18 15:55:28;;;;;;;2.83;1.83;;;11.30;89.20;;;;;;5034482;28;20788;-77
2022/04/18 15:57:54;;;;;;;3.30;2.13;;;11.70;86.80;;;;;;5033887;28;20678;-77
2022/04/18 16:00:19;;;;;;;1.80;1.30;;;11.80;85.50;;;;;;5021689;28;20185;-80
2022/04/18 16:02:45;;;;;;;2.90;1.53;;;12.10;84.00;;;;;;5025834;28;20202;-78
2022/04/18 16:05:10;;;;;;;2.03;1.80;;;12.00;84.10;;;;;;5018895;28;20256;-77
2022/04/18 16:07:37;;;;;;;2.27;1.67;;;12.20;85.20;;;;;;5041084;28;20279;-77
2022/04/18 16:10:03;;;;;;;2.43;1.50;;;12.30;84.80;;;;;;5016516;28;20605;-76
2022/04/18 16:12:29;;;;;;;2.90;1.80;;;12.20;82.20;;;;;;5033675;28;20518;-77
2022/04/18 16:14:55;;;;;;;1.63;1.53;;;12.30;85.20;;;;;;5033573;28;20458;-76
2022/04/18 16:17:20;;;;;;;2.40;1.40;;;12.30;85.80;;;;;;5028676;28;20559;-79
2022/04/18 16:19:47;;;;;;;2.83;1.70;;;12.20;84.30;;;;;;5013585;28;20173;-77
2022/04/18 16:22:12;;;;;;;2.07;1.40;;;12.10;85.90;;;;;;5012568;28;20189;-77
2022/04/18 16:24:38;;;;;;;2.17;1.47;;;12.00;86.30;;;;;;5028853;28;20411;-76
2022/04/18 16:27:04;;;;;;;1.50;1.20;;;12.00;87.50;;;;;;5014713;28;20185;-76
2022/04/18 16:32:13;;;;;;;1.50;1.10;;;11.90;86.50;;;;;;5033238;28;20219;-78
2022/04/18 16:34:39;;;;;;;3.10;1.40;;;11.80;85.70;;;;;;5033289;28;20899;-80
2022/04/18 16:37:05;;;;;;;2.20;1.53;;;11.80;87.30;;;;;;5033547;28;20195;-78
2022/04/18 16:39:31;;;;;;;2.50;1.40;;;11.80;87.20;;;;;;5015390;28;20172;-79
2022/04/18 16:47:25;;;;;;;1.70;1.33;;;12.10;88.30;;;;;;5033565;28;20394;-79
2022/04/18 16:49:50;;;;;;;1.80;1.40;;;11.80;87.10;;;;;;5015345;28;20427;-78
2022/04/18 16:52:16;;;;;;;2.03;1.23;;;11.60;86.90;;;;;;5024391;28;20191;-80
2022/04/18 16:54:42;;;;;;;2.00;1.50;;;11.40;88.10;;;;;;5030910;28;20628;-79
2022/04/18 16:57:07;;;;;;;3.60;1.63;;;11.20;88.70;;;;;;5001271;28;20586;-79
2022/04/18 16:59:33;;;;;;;1.13;1.00;;;11.10;88.90;;;;;;5022639;28;20544;-80
2022/04/18 17:01:58;;;;;;;2.53;1.50;;;11.00;90.80;;;;;;5020842;28;20266;-80
2022/04/18 17:04:24;;;;;;;2.20;1.50;;;11.00;89.70;;;;;;5017847;28;20256;-80
2022/04/18 17:06:49;;;;;;;4.03;1.40;;;11.00;90.60;;;;;;5014659;28;20204;-80
2022/04/18 17:09:15;;;;;;;3.43;1.07;;;11.00;90.30;;;;;;5017463;28;20180;-80
2022/04/18 17:11:41;;;;;;;1.40;1.10;;;10.90;91.80;;;;;;5024655;28;20660;-81
2022/04/18 17:14:06;;;;;;;3.73;1.57;;;10.80;90.10;;;;;;5000798;28;20682;-80
2022/04/18 17:16:32;;;;;;;2.03;1.60;;;10.70;91.30;;;;;;5015661;28;20299;-80
2022/04/18 17:18:57;;;;;;;1.73;1.20;;;10.60;91.20;;;;;;5004947;28;20199;-79
2022/04/18 17:21:23;;;;;;;3.20;1.40;;;10.50;91.20;;;;;;5012738;28;20191;-78
2022/04/18 17:23:49;;;;;;;1.63;1.33;;;10.30;91.30;;;;;;5022711;28;20192;-79
2022/04/18 17:26:14;;;;;;;1.60;1.30;;;10.20;93.10;;;;;;5022170;28;20179;-77
2022/04/18 17:28:40;;;;;;;1.67;1.10;;;9.90;94.60;;;;;;5011869;28;20893;-77
2022/04/18 17:31:05;;;;;;;2.17;1.10;;;9.70;94.80;;;;;;5023462;28;20204;-77
2022/04/18 17:33:31;;;;;;;2.00;1.43;;;9.60;94.30;;;;;;5008631;28;20215;-77
2022/04/18 17:35:58;;;;;;;2.10;1.30;;;9.50;94.40;;;;;;5016084;28;20223;-77
2022/04/18 17:38:25;;;;;;;2.30;1.60;;;9.30;95.90;;;;;;5004293;28;20223;-77
2022/04/18 17:40:50;;;;;;;2.20;1.30;;;9.10;96.30;;;;;;5007017;28;20530;-76
2022/04/18 17:43:16;;;;;;;2.30;1.23;;;8.90;96.30;;;;;;5019425;28;20845;-76
2022/04/18 17:45:42;;;;;;;1.70;1.50;;;8.70;96.30;;;;;;4996514;28;20181;-76
2022/04/18 17:48:08;;;;;;;2.70;1.10;;;8.50;96.30;;;;;;5027356;28;20214;-76
2022/04/18 17:50:35;;;;;;;1.80;1.40;;;8.40;96.30;;;;;;5004837;28;20258;-75
2022/04/18 17:53:00;;;;;;;1.70;1.37;;;8.20;96.30;;;;;;5022027;28;20403;-76
2022/04/18 17:58:10;;;;;;;3.83;2.20;;;7.80;96.30;;;;;;5018998;28;20282;-76
2022/04/18 18:00:36;;;;;;;2.67;1.90;;;7.60;96.30;;;;;;5019330;28;20923;-77
2022/04/18 18:03:01;;;;;;;2.03;1.53;;;7.50;96.30;;;;;;5010128;28;20187;-77
2022/04/18 18:05:27;;;;;;;2.40;2.00;;;7.50;96.30;;;;;;4998023;28;20199;-78
2022/04/18 18:07:56;;;;;;;4.30;2.50;;;7.40;96.30;;;;;;5006384;28;20679;-76
2022/04/18 18:10:21;;;;;;;5.50;2.10;;;7.30;96.30;;;;;;5031120;28;20185;-76
2022/04/18 18:12:48;;;;;;;1.90;1.57;;;7.10;96.30;;;;;;5007834;28;20420;-77
2022/04/18 18:15:14;;;;;;;2.30;1.87;;;7.00;96.30;;;;;;5021431;28;20175;-76
2022/04/18 18:17:40;;;;;;;3.20;2.00;;;6.80;96.30;;;;;;5022693;28;20451;-76
2022/04/18 18:20:07;;;;;;;2.47;1.70;;;6.70;96.30;;;;;;5023183;28;20218;-77
2022/04/18 18:22:34;;;;;;;1.73;1.40;;;6.70;96.30;;;;;;5021837;28;20434;-76
2022/04/18 18:25:07;;;;;;;2.23;1.30;;;6.60;96.30;;;;;;5027997;28;20458;-76
2022/04/18 18:27:34;;;;;;;1.40;1.30;;;6.60;96.30;;;;;;5027419;28;20985;-76
2022/04/18 18:29:59;;;;;;;3.10;1.40;;;6.50;96.30;;;;;;5011232;28;20426;-76
2022/04/18 18:32:25;;;;;;;1.87;1.43;;;6.50;96.30;;;;;;5011031;28;20443;-76
2022/04/18 18:34:51;;;;;;;2.00;1.60;;;6.50;96.30;;;;;;5029590;28;20218;-76
2022/04/18 18:37:17;;;;;;;2.90;1.80;;;6.50;96.30;;;;;;5025681;28;20683;-76
2022/04/18 18:39:44;;;;;;;1.40;1.30;;;6.50;96.30;;;;;;5012998;28;20434;-76
2022/04/18 18:42:10;;;;;;;3.63;1.50;;;6.50;96.30;;;;;;5032597;28;20431;-77
2022/04/18 18:44:36;;;;;;;1.57;1.43;;;6.50;96.30;;;;;;5014591;28;20781;-77
2022/04/18 18:47:01;;;;;;;3.10;1.60;;;6.40;96.30;;;;;;5014060;28;20191;-77
2022/04/18 18:49:27;;;;;;;2.30;1.57;;;6.30;96.30;;;;;;5030676;28;20935;-78
2022/04/18 18:54:36;;;;;;;3.10;1.80;;;6.30;96.30;;;;;;5031756;28;20611;-78
2022/04/18 18:57:02;;;;;;;1.60;1.20;;;6.30;96.30;;;;;;5016685;28;20450;-78
2022/04/18 18:59:28;;;;;;;1.10;1.00;;;6.20;96.30;;;;;;5034796;28;20168;-77
2022/04/18 19:01:53;;;;;;;3.70;2.10;;;6.10;96.30;;;;;;5036961;28;20215;-77
2022/04/18 19:04:19;;;;;;;1.53;1.43;;;6.00;96.30;;;;;;5024728;28;20172;-77
2022/04/18 19:06:44;;;;;;;3.77;1.57;;;6.00;96.30;;;;;;5029021;28;20207;-78
2022/04/18 19:09:10;;;;;;;2.80;1.60;;;5.90;96.30;;;;;;5008497;28;20292;-78
2022/04/18 19:11:38;;;;;;;2.40;1.33;;;5.80;96.30;;;;;;5021788;28;20228;-78
2022/04/18 19:14:04;;;;;;;3.30;1.50;;;5.70;96.30;;;;;;5014652;28;20256;-77
2022/04/18 19:26:20;;;;;;;1.30;1.20;;;5.70;96.30;;;;;;5014821;28;20538;-78
2022/04/18 19:27:28;;;;;;;3.20;1.50;;;5.60;96.30;;;;;;5016844;28;20457;-75
2022/04/18 19:29:53;;;;;;;2.67;1.10;;;5.50;96.30;;;;;;5018470;28;20486;-75
2022/04/18 19:32:19;;;;;;;1.57;1.37;;;5.40;96.30;;;;;;5015579;28;20201;-77
2022/04/18 19:34:45;;;;;;;1.87;1.60;;;5.30;96.30;;;;;;5019150;28;20594;-76
2022/04/18 19:37:11;;;;;;;1.40;1.20;;;5.20;96.30;;;;;;5019933;28;20209;-77
2022/04/18 19:39:37;;;;;;;1.97;1.43;;;5.20;96.30;;;;;;5020198;28;20404;-74
2022/04/18 20:32:18;;;;;;;2.70;1.77;;;3.60;96.30;;;;;;5408710;23;20847;-73
2022/04/18 20:34:44;;;;;;;2.53;1.53;;;3.50;96.30;;;;;;4994204;28;20401;-75
2022/04/18 20:37:10;;;;;;;1.80;1.70;;;3.50;96.30;;;;;;4994141;28;20259;-73
2022/04/18 20:39:36;;;;;;;2.23;1.57;;;3.50;96.30;;;;;;4993983;28;20174;-73
2022/04/18 20:42:02;;;;;;;1.80;1.33;;;3.40;96.30;;;;;;5008538;28;20435;-74
2022/04/18 20:44:27;;;;;;;2.60;2.13;;;3.50;96.30;;;;;;5011524;28;20180;-73
2022/04/18 20:46:53;;;;;;;3.30;2.13;;;3.60;96.30;;;;;;5004083;28;20506;-73
2022/04/18 20:49:19;;;;;;;2.80;1.93;;;;;;;;;;5010378;28;20185;-73
2022/04/18 20:51:45;;;;;;;2.50;2.23;;;3.60;96.30;;;;;;4993869;28;20203;-73
2022/04/18 20:59:39;;;;;;;3.20;2.93;;;3.30;96.30;;;;;;4993886;28;20452;-74
2022/04/18 21:02:05;;;;;;;3.80;2.80;;;3.10;96.30;;;;;;4993680;28;20428;-76
2022/04/18 21:04:30;;;;;;;3.10;2.60;;;3.10;96.30;;;;;;4993702;28;20523;-75
2022/04/18 21:06:57;;;;;;;3.80;2.90;;;3.20;96.30;;;;;;4976146;28;20712;-76
2022/04/18 21:09:23;;;;;;;2.80;2.40;;;3.10;96.30;;;;;;4993368;28;20170;-76
2022/04/18 21:11:48;;;;;;;5.57;3.93;;;3.10;96.30;;;;;;4993436;28;20491;-76
2022/04/18 21:14:14;;;;;;;4.63;3.53;;;3.20;96.30;;;;;;4993604;28;20546;-77
2022/04/18 21:16:39;;;;;;;4.00;2.90;;;3.20;96.30;;;;;;4976068;28;20205;-75
2022/04/18 21:19:05;;;;;;;3.90;2.57;;;3.20;96.30;;;;;;4974154;28;20603;-75
2022/04/18 21:21:31;;;;;;;4.13;2.57;;;3.10;96.30;;;;;;4993226;28;20196;-75
2022/04/18 21:23:57;;;;;;;4.57;2.80;;;3.10;96.30;;;;;;4993240;28;20228;-76
2022/04/18 21:26:24;;;;;;;2.30;2.00;;;3.00;96.30;;;;;;4993120;28;20173;-75
2022/04/18 21:28:50;;;;;;;5.93;2.80;;;2.90;96.30;;;;;;4980911;28;20463;-77
2022/04/18 21:31:18;;;;;;;4.90;3.37;;;2.80;96.30;;;;;;4993037;28;20502;-76
2022/04/18 21:33:46;;;;;;;11.77;6.20;;;2.70;96.30;;;;;;4993239;28;20181;-77
2022/04/18 21:36:41;;;;;;;5.20;4.07;;;2.60;96.30;;;;;;4991781;28;20460;-77
2022/04/18 21:38:58;;;;;;;7.27;2.27;;;2.50;96.30;;;;;;4992282;28;20455;-77
2022/04/18 21:41:23;;;;;;;4.60;2.43;;;2.50;96.30;;;;;;4992927;28;20920;-76
2022/04/18 21:43:49;;;;;;;5.10;2.07;;;2.40;96.30;;;;;;4991894;28;20173;-77
2022/04/18 21:46:15;;;;;;;2.83;2.27;;;2.40;96.30;;;;;;4993094;28;20656;-76
2022/04/18 21:48:41;;;;;;;2.67;2.00;;;2.30;96.30;;;;;;4992942;28;20173;-76
2022/04/18 21:51:07;;;;;;;5.27;2.10;;;2.30;96.30;;;;;;4993076;28;20217;-74
2022/04/18 21:53:35;;;;;;;3.07;2.03;;;2.40;96.30;;;;;;4993009;28;20897;-74
2022/04/18 21:56:01;;;;;;;2.70;1.90;;;2.50;96.30;;;;;;4993045;28;20456;-74
2022/04/18 21:58:27;;;;;;;2.50;2.30;;;2.40;96.30;;;;;;4992940;28;20467;-75
2022/04/18 22:01:04;;;;;;;3.40;2.17;;;2.40;96.30;;;;;;4992773;28;20259;-75
2022/04/18 22:03:30;;;;;;;3.50;2.33;;;2.30;96.30;;;;;;4992800;28;20408;-74